createdAt,value
2022-08-17T00:02:26.590Z,67.63
2022-08-17T00:04:55.147Z,68.40
2022-08-17T00:07:22.721Z,67.86
2022-08-17T00:09:50.370Z,68.52
2022-08-17T00:12:43.395Z,68.23
2022-08-17T00:15:06.179Z,68.62
2022-08-17T00:17:37.584Z,68.39
2022-08-17T00:20:05.544Z,68.13
2022-08-17T00:22:36.421Z,68.13
2022-08-17T00:25:08.295Z,68.24
2022-08-17T00:27:35.824Z,68.26
2022-08-17T00:30:04.867Z,68.07
2022-08-17T00:33:14.543Z,68.32
2022-08-17T00:35:32.752Z,68.68
2022-08-17T00:37:59.963Z,68.75
2022-08-17T00:40:27.359Z,69.55
2022-08-17T00:43:17.153Z,69.68
2022-08-17T00:45:45.015Z,69.86
2022-08-17T00:48:29.531Z,69.47
2022-08-17T00:51:09.645Z,68.72
2022-08-17T00:53:39.375Z,69.30
2022-08-17T00:56:09.398Z,69.37
2022-08-17T00:58:37.382Z,69.04
2022-08-17T01:01:06.261Z,68.96
2022-08-17T01:03:33.966Z,69.23
2022-08-17T01:06:02.291Z,69.35
2022-08-17T01:08:31.052Z,69.25
2022-08-17T01:11:02.205Z,69.20
2022-08-17T01:13:39.738Z,68.97
2022-08-17T01:16:16.656Z,68.94
2022-08-17T01:18:45.441Z,70.06
2022-08-17T01:21:36.928Z,70.73
2022-08-17T01:24:04.388Z,71.48
2022-08-17T01:26:33.304Z,72.43
2022-08-17T01:29:02.309Z,72.97
2022-08-17T01:31:30.755Z,73.25
2022-08-17T01:34:00.635Z,72.96
2022-08-17T01:36:29.148Z,72.29
2022-08-17T01:38:56.514Z,71.99
2022-08-17T01:41:24.879Z,71.47
2022-08-17T01:43:56.861Z,71.16
2022-08-17T01:46:28.159Z,70.93
2022-08-17T01:48:57.497Z,70.59
2022-08-17T01:51:33.258Z,71.16
2022-08-17T01:54:06.621Z,71.58
2022-08-17T01:56:35.322Z,72.00
2022-08-17T01:59:02.960Z,72.63
2022-08-17T02:01:31.738Z,73.24
2022-08-17T02:04:01.417Z,73.62
2022-08-17T02:06:44.918Z,73.55
2022-08-17T02:09:16.999Z,73.68
2022-08-17T02:11:44.461Z,74.17
2022-08-17T02:14:12.796Z,74.24
2022-08-17T02:16:41.015Z,73.88
2022-08-17T02:19:13.258Z,73.66
2022-08-17T02:21:41.963Z,73.66
2022-08-17T02:24:11.953Z,73.91
2022-08-17T02:26:39.213Z,73.98
2022-08-17T02:29:07.230Z,73.46
2022-08-17T02:31:35.577Z,73.30
2022-08-17T02:34:04.758Z,73.26
2022-08-17T02:36:33.967Z,73.25
2022-08-17T02:39:06.740Z,73.53
2022-08-17T02:41:34.167Z,73.70
2022-08-17T02:44:01.406Z,74.20
2022-08-17T02:46:29.076Z,74.52
2022-08-17T02:48:56.428Z,75.39
2022-08-17T02:51:23.649Z,76.07
2022-08-17T02:53:50.921Z,76.03
2022-08-17T02:56:18.143Z,75.73
2022-08-17T02:58:46.240Z,75.87
2022-08-17T03:01:13.900Z,75.76
2022-08-17T03:03:41.528Z,75.52
2022-08-17T03:06:09.202Z,75.68
2022-08-17T03:08:37.520Z,75.49
2022-08-17T03:11:04.963Z,75.30
2022-08-17T03:13:32.171Z,74.78
2022-08-17T03:15:59.381Z,74.80
2022-08-17T03:18:27.927Z,74.31
2022-08-17T03:20:59.835Z,74.13
2022-08-17T03:23:27.908Z,74.05
2022-08-17T03:25:57.480Z,74.42
2022-08-17T03:28:25.517Z,74.71
2022-08-17T03:30:53.054Z,74.58
2022-08-17T03:33:20.817Z,74.52
2022-08-17T03:35:48.054Z,74.43
2022-08-17T03:38:17.072Z,74.33
2022-08-17T03:40:57.810Z,75.71
2022-08-17T03:43:28.433Z,76.78
2022-08-17T03:46:27.343Z,77.01
2022-08-17T03:49:19.564Z,77.30
2022-08-17T03:52:05.615Z,77.98
2022-08-17T03:54:51.563Z,78.05
2022-08-17T03:57:19.226Z,78.99
2022-08-17T03:59:46.758Z,79.21
2022-08-17T04:02:32.128Z,79.27
2022-08-17T04:04:59.801Z,79.02
2022-08-17T04:07:29.050Z,79.35
2022-08-17T04:09:57.879Z,79.62
2022-08-17T04:12:25.704Z,80.48
2022-08-17T04:14:55.018Z,80.82
2022-08-17T04:17:24.614Z,80.95
2022-08-17T04:19:52.028Z,80.44
2022-08-17T04:22:31.401Z,79.73
2022-08-17T04:25:06.016Z,79.36
2022-08-17T04:27:33.516Z,78.15
2022-08-17T04:30:01.286Z,77.43
2022-08-17T04:33:00.786Z,76.78
2022-08-17T04:35:19.542Z,76.90
2022-08-17T04:37:47.361Z,76.84
2022-08-17T04:40:33.062Z,76.44
2022-08-17T04:43:06.212Z,76.19
2022-08-17T04:45:34.081Z,75.30
2022-08-17T04:48:02.332Z,75.32
2022-08-17T04:50:29.522Z,74.36
2022-08-17T04:52:57.105Z,73.64
2022-08-17T04:55:24.475Z,73.43
2022-08-17T04:57:51.750Z,73.11
2022-08-17T05:00:19.131Z,72.71
2022-08-17T05:02:49.819Z,72.51
2022-08-17T05:05:23.387Z,71.70
2022-08-17T05:07:55.457Z,70.67
2022-08-17T05:10:24.199Z,70.75
2022-08-17T05:13:06.303Z,70.13
2022-08-17T05:15:36.071Z,70.17
2022-08-17T05:18:03.957Z,69.89
2022-08-17T05:20:31.751Z,69.71
2022-08-17T05:23:01.718Z,68.91
2022-08-17T05:25:32.809Z,68.62
2022-08-17T05:28:04.277Z,68.33
2022-08-17T05:30:34.792Z,67.93
2022-08-17T05:33:11.233Z,67.38
2022-08-17T05:35:40.297Z,66.82
2022-08-17T05:38:08.258Z,66.84
2022-08-17T05:40:36.385Z,66.52
2022-08-17T05:43:20.519Z,65.68
2022-08-17T05:46:11.027Z,65.41
2022-08-17T05:48:40.568Z,64.88
2022-08-17T05:51:31.971Z,64.45
2022-08-17T05:54:30.035Z,64.60
2022-08-17T05:57:36.280Z,64.43
2022-08-17T06:00:19.282Z,64.07
2022-08-17T06:03:06.718Z,63.57
2022-08-17T06:05:55.352Z,62.71
2022-08-17T06:08:32.862Z,62.12
2022-08-17T06:11:23.086Z,62.29
2022-08-17T06:14:22.080Z,60.52
2022-08-17T06:16:58.856Z,60.14
2022-08-17T06:19:42.604Z,59.43
2022-08-17T06:22:13.621Z,58.85
2022-08-17T06:24:50.069Z,58.08
2022-08-17T06:27:40.894Z,56.49
2022-08-17T06:30:24.672Z,55.08
2022-08-17T06:32:53.275Z,54.04
2022-08-17T06:35:31.935Z,53.11
2022-08-17T06:38:51.328Z,51.75
2022-08-17T06:41:32.199Z,50.67
2022-08-17T06:44:11.964Z,49.50
2022-08-17T06:47:15.868Z,48.49
2022-08-17T06:50:01.121Z,46.93
2022-08-17T06:52:45.974Z,46.21
2022-08-17T06:55:23.972Z,45.95
2022-08-17T06:57:57.448Z,43.27
2022-08-17T07:00:28.601Z,43.30
2022-08-17T07:03:10.623Z,41.69
2022-08-17T07:05:59.452Z,40.26
2022-08-17T07:08:35.014Z,38.34
2022-08-17T07:11:07.944Z,36.97
2022-08-17T07:14:01.202Z,36.23
2022-08-17T07:16:36.349Z,35.64
2022-08-17T07:19:06.004Z,35.15
2022-08-17T07:22:08.681Z,35.77
2022-08-17T07:24:58.300Z,33.98
2022-08-17T07:27:45.693Z,33.79
2022-08-17T07:30:19.404Z,32.65
2022-08-17T07:32:59.373Z,31.59
2022-08-17T07:35:37.841Z,32.84
2022-08-17T07:38:24.707Z,32.16
2022-08-17T07:41:03.812Z,32.73
2022-08-17T07:43:40.010Z,32.88
2022-08-17T07:46:35.973Z,32.70
2022-08-17T07:49:08.590Z,32.91
2022-08-17T07:51:40.711Z,32.91
2022-08-17T07:54:22.975Z,32.00
2022-08-17T07:56:55.908Z,31.60
2022-08-17T07:59:34.907Z,30.67
2022-08-17T08:02:06.688Z,31.09
2022-08-17T08:07:35.693Z,30.98
2022-08-17T08:10:11.096Z,31.87
2022-08-17T08:12:46.599Z,33.88
2022-08-17T08:15:22.214Z,32.56
2022-08-17T08:17:57.497Z,33.43
2022-08-17T08:20:53.279Z,33.90
2022-08-17T08:23:41.655Z,34.31
2022-08-17T08:26:18.757Z,33.94
2022-08-17T08:28:49.337Z,35.24
2022-08-17T08:31:19.166Z,33.78
2022-08-17T08:34:58.787Z,33.56
2022-08-17T08:37:42.471Z,33.82
2022-08-17T08:40:19.834Z,34.35
2022-08-17T08:43:05.948Z,33.55
2022-08-17T08:45:38.132Z,32.93
2022-08-17T08:48:52.828Z,34.07
2022-08-17T08:51:47.185Z,33.21
2022-08-17T08:54:31.349Z,34.73
2022-08-17T09:00:15.497Z,33.93
2022-08-17T09:03:10.939Z,33.33
2022-08-17T09:05:57.445Z,33.64
2022-08-17T09:08:58.991Z,32.18
2022-08-17T09:12:01.099Z,33.19
2022-08-17T09:14:46.790Z,33.89
2022-08-17T09:21:04.052Z,33.02
2022-08-17T09:23:37.656Z,34.05
2022-08-17T09:26:30.864Z,33.58
2022-08-17T09:29:02.165Z,33.38
2022-08-17T09:31:46.311Z,33.54
2022-08-17T09:34:32.019Z,33.25
2022-08-17T09:37:11.398Z,32.98
2022-08-17T09:40:03.137Z,33.73
2022-08-17T09:42:40.557Z,33.74
2022-08-17T09:45:27.040Z,32.23
2022-08-17T09:48:03.077Z,33.25
2022-08-17T09:51:04.850Z,31.48
2022-08-17T09:53:37.272Z,31.36
2022-08-17T09:56:27.243Z,31.04
2022-08-17T09:59:23.595Z,30.86
2022-08-17T10:02:21.028Z,31.29
2022-08-17T10:04:58.677Z,30.79
2022-08-17T10:07:48.041Z,30.26
2022-08-17T10:10:24.836Z,30.98
2022-08-17T10:12:55.993Z,30.11
2022-08-17T10:15:42.597Z,31.19
2022-08-17T10:18:31.964Z,31.79
2022-08-17T10:21:29.979Z,31.95
2022-08-17T10:24:29.601Z,32.64
2022-08-17T10:26:58.737Z,31.98
2022-08-17T10:29:47.446Z,32.33
2022-08-17T10:32:33.021Z,32.39
2022-08-17T10:35:18.868Z,32.09
2022-08-17T10:38:12.585Z,32.67
2022-08-17T10:41:01.788Z,32.95
2022-08-17T10:44:37.414Z,31.99
2022-08-17T10:47:01.421Z,32.00
2022-08-17T10:49:32.584Z,31.83
2022-08-17T10:52:05.933Z,32.03
2022-08-17T10:54:57.886Z,32.09
2022-08-17T10:57:33.795Z,31.72
2022-08-17T11:00:15.169Z,31.45
2022-08-17T11:02:51.463Z,31.77
2022-08-17T11:05:28.886Z,31.18
2022-08-17T11:08:05.273Z,32.02
2022-08-17T11:11:02.029Z,31.32
2022-08-17T11:14:07.621Z,31.45
2022-08-17T11:16:50.439Z,31.17
2022-08-17T11:19:46.051Z,31.60
2022-08-17T11:22:33.674Z,30.65
2022-08-17T11:25:20.594Z,30.69
2022-08-17T11:27:53.844Z,30.79
2022-08-17T11:30:41.497Z,31.14
2022-08-17T11:33:29.947Z,30.48
2022-08-17T11:36:16.694Z,30.83
2022-08-17T11:39:01.131Z,30.97
2022-08-17T11:41:48.897Z,32.88
2022-08-17T11:44:37.764Z,33.28
2022-08-17T11:48:23.817Z,33.48
2022-08-17T11:51:16.340Z,33.57
2022-08-17T11:53:43.456Z,34.72
2022-08-17T11:56:34.525Z,34.00
2022-08-17T11:59:02.287Z,33.93
2022-08-17T12:01:49.346Z,33.31
2022-08-17T12:04:34.835Z,32.89
2022-08-17T12:07:10.929Z,33.71
2022-08-17T12:09:44.927Z,34.11
2022-08-17T12:12:18.360Z,32.78
2022-08-17T12:15:11.872Z,32.65
2022-08-17T12:17:42.626Z,33.71
2022-08-17T12:20:23.084Z,33.73
2022-08-17T12:23:17.316Z,33.11
2022-08-17T12:25:59.723Z,33.95
2022-08-17T12:28:30.241Z,33.94
2022-08-17T12:31:01.460Z,34.22
2022-08-17T12:33:29.072Z,33.51
2022-08-17T12:36:03.203Z,33.09
2022-08-17T12:38:34.686Z,31.76
2022-08-17T12:41:23.549Z,32.77
2022-08-17T12:44:16.471Z,31.23
2022-08-17T12:47:22.973Z,31.89
2022-08-17T12:49:54.235Z,31.71
2022-08-17T12:52:27.277Z,31.54
2022-08-17T12:55:01.781Z,31.16
2022-08-17T12:57:55.366Z,31.47
2022-08-17T13:00:34.987Z,31.10
2022-08-17T13:03:19.107Z,31.28
2022-08-17T13:06:09.374Z,31.43
2022-08-17T13:08:45.810Z,30.77
2022-08-17T13:11:18.671Z,31.35
2022-08-17T13:13:51.129Z,31.34
2022-08-17T13:16:30.415Z,31.15
2022-08-17T13:19:15.582Z,31.18
2022-08-17T13:21:48.961Z,30.61
2022-08-17T13:24:20.312Z,30.75
2022-08-17T13:26:59.014Z,30.82
2022-08-17T13:29:33.184Z,30.77
2022-08-17T13:32:13.063Z,29.84
2022-08-17T13:35:03.727Z,30.98
2022-08-17T13:37:36.930Z,30.36
2022-08-17T13:40:10.461Z,31.04
2022-08-17T13:42:50.425Z,31.35
2022-08-17T13:45:43.837Z,31.35
2022-08-17T13:48:23.999Z,31.10
2022-08-17T13:50:56.972Z,31.01
2022-08-17T13:53:40.436Z,30.47
2022-08-17T13:56:38.057Z,31.14
2022-08-17T13:59:11.352Z,30.68
2022-08-17T14:01:52.843Z,31.02
2022-08-17T14:04:24.274Z,30.67
2022-08-17T14:06:54.504Z,30.83
2022-08-17T14:09:43.737Z,30.90
2022-08-17T14:12:12.978Z,31.20
2022-08-17T14:14:42.561Z,31.12
2022-08-17T14:17:10.683Z,30.94
2022-08-17T14:19:38.215Z,32.05
2022-08-17T14:22:08.851Z,31.73
2022-08-17T14:24:44.657Z,31.86
2022-08-17T14:27:15.734Z,31.78
2022-08-17T14:29:43.693Z,32.18
2022-08-17T14:32:20.523Z,31.11
2022-08-17T14:34:49.572Z,31.71
2022-08-17T14:37:20.825Z,30.96
2022-08-17T14:39:48.346Z,31.77
2022-08-17T14:42:17.522Z,33.42
2022-08-17T14:44:45.508Z,30.64
2022-08-17T14:47:15.861Z,30.79
2022-08-17T14:49:43.677Z,30.53
2022-08-17T14:52:18.284Z,31.67
2022-08-17T14:54:46.000Z,31.60
2022-08-17T14:57:25.933Z,30.81
2022-08-17T15:00:01.249Z,31.84
2022-08-17T15:02:29.786Z,31.50
2022-08-17T15:05:03.547Z,32.07
2022-08-17T15:07:31.489Z,31.46
2022-08-17T15:10:01.360Z,31.69
2022-08-17T15:12:33.215Z,31.29
2022-08-17T15:15:05.426Z,32.60
2022-08-17T15:17:44.594Z,31.25
2022-08-17T15:20:22.844Z,31.70
2022-08-17T15:22:50.524Z,31.23
2022-08-17T15:25:18.982Z,30.95
2022-08-17T15:27:46.316Z,31.17
2022-08-17T15:30:13.734Z,30.83
2022-08-17T15:32:50.614Z,30.91
2022-08-17T15:35:26.955Z,31.13
2022-08-17T15:37:56.679Z,31.33
2022-08-17T15:40:25.031Z,31.77
2022-08-17T15:42:52.828Z,31.31
2022-08-17T15:45:24.464Z,31.61
2022-08-17T15:47:53.521Z,31.03
2022-08-17T15:50:21.074Z,31.56
2022-08-17T15:52:55.619Z,31.48
2022-08-17T15:55:24.256Z,31.40
2022-08-17T15:57:52.150Z,31.45
2022-08-17T16:00:19.908Z,31.66
2022-08-17T16:03:45.712Z,31.41
2022-08-17T16:05:35.791Z,31.88
2022-08-17T16:08:04.507Z,32.45
2022-08-17T16:10:35.212Z,32.08
2022-08-17T16:13:03.713Z,32.35
2022-08-17T16:15:31.743Z,32.26
2022-08-17T16:17:59.135Z,32.44
2022-08-17T16:20:26.689Z,32.63
2022-08-17T16:22:54.480Z,32.47
2022-08-17T16:25:50.423Z,32.34
2022-08-17T16:28:17.235Z,32.25
2022-08-17T16:30:44.620Z,32.37
2022-08-17T16:33:11.899Z,32.91
2022-08-17T16:35:39.201Z,32.80
2022-08-17T16:38:07.099Z,32.39
2022-08-17T16:40:36.161Z,32.24
2022-08-17T16:43:06.929Z,32.60
2022-08-17T16:45:39.863Z,32.27
2022-08-17T16:48:08.256Z,32.25
2022-08-17T16:50:35.923Z,32.29
2022-08-17T16:53:10.385Z,32.25
2022-08-17T16:55:37.777Z,33.22
2022-08-17T16:58:05.955Z,33.42
2022-08-17T17:00:33.844Z,32.92
2022-08-17T17:03:20.675Z,33.39
2022-08-17T17:05:59.455Z,33.11
2022-08-17T17:08:31.471Z,33.11
2022-08-17T17:11:03.802Z,33.52
2022-08-17T17:13:47.234Z,33.40
2022-08-17T17:16:45.797Z,33.90
2022-08-17T17:19:34.499Z,33.66
2022-08-17T17:22:14.012Z,33.74
2022-08-17T17:24:47.093Z,34.53
2022-08-17T17:27:42.684Z,34.47
2022-08-17T17:30:15.564Z,34.31
2022-08-17T17:32:51.157Z,34.49
2022-08-17T17:35:44.755Z,35.07
2022-08-17T17:38:21.460Z,34.68
2022-08-17T17:40:51.632Z,34.69
2022-08-17T17:43:38.312Z,34.81
2022-08-17T17:46:27.575Z,35.08
2022-08-17T17:48:56.996Z,34.99
2022-08-17T17:52:08.587Z,35.27
2022-08-17T17:54:44.980Z,35.14
2022-08-17T17:57:25.788Z,35.45
2022-08-17T18:00:03.409Z,35.46
2022-08-17T18:02:52.089Z,35.58
2022-08-17T18:05:34.812Z,35.81
2022-08-17T18:08:21.044Z,35.59
2022-08-17T18:11:24.564Z,36.11
2022-08-17T18:14:14.222Z,36.63
2022-08-17T18:16:43.073Z,36.79
2022-08-17T18:19:21.231Z,37.28
2022-08-17T18:22:02.561Z,37.84
2022-08-17T18:24:35.973Z,37.50
2022-08-17T18:27:26.705Z,38.05
2022-08-17T18:29:56.473Z,38.31
2022-08-17T18:32:28.683Z,38.33
2022-08-17T18:35:09.253Z,38.51
2022-08-17T18:37:51.584Z,38.64
2022-08-17T18:40:23.330Z,38.67
2022-08-17T18:43:21.163Z,39.24
2022-08-17T18:45:49.178Z,38.86
2022-08-17T18:48:22.965Z,39.45
2022-08-17T18:50:53.465Z,39.44
2022-08-17T18:53:26.967Z,39.52
2022-08-17T18:56:18.814Z,39.23
2022-08-17T18:58:53.572Z,39.64
2022-08-17T19:01:22.177Z,40.06
2022-08-17T19:04:15.635Z,40.35
2022-08-17T19:06:43.499Z,40.24
2022-08-17T19:09:29.963Z,40.35
2022-08-17T19:11:57.655Z,40.47
2022-08-17T19:14:27.241Z,40.19
2022-08-17T19:16:59.309Z,40.69
2022-08-17T19:19:42.043Z,40.63
2022-08-17T19:22:17.002Z,41.42
2022-08-17T19:25:03.726Z,40.86
2022-08-17T19:27:46.253Z,41.14
2022-08-17T19:30:15.005Z,41.00
2022-08-17T19:32:42.247Z,41.36
2022-08-17T19:35:15.122Z,41.08
2022-08-17T19:37:49.396Z,41.42
2022-08-17T19:40:52.370Z,41.52
2022-08-17T19:43:44.149Z,41.45
2022-08-17T19:46:29.525Z,41.70
2022-08-17T19:49:14.575Z,42.48
2022-08-17T19:51:47.189Z,41.95
2022-08-17T19:54:40.512Z,43.20
2022-08-17T19:57:11.502Z,42.78
2022-08-17T19:59:58.789Z,43.63
2022-08-17T20:02:42.334Z,43.94
2022-08-17T20:05:21.462Z,43.76
2022-08-17T20:07:54.690Z,43.61
2022-08-17T20:10:29.165Z,44.49
2022-08-17T20:13:01.589Z,44.09
2022-08-17T20:15:30.957Z,44.33
2022-08-17T20:18:00.407Z,44.21
2022-08-17T20:20:50.684Z,45.05
2022-08-17T20:23:31.689Z,44.74
2022-08-17T20:26:19.283Z,45.05
2022-08-17T20:29:09.651Z,44.59
2022-08-17T20:31:50.542Z,44.80
2022-08-17T20:34:30.971Z,44.79
2022-08-17T20:37:08.708Z,45.25
2022-08-17T20:39:46.310Z,45.01
2022-08-17T20:42:22.680Z,45.25
2022-08-17T20:44:57.859Z,44.98
2022-08-17T20:48:07.291Z,44.87
2022-08-17T20:50:43.519Z,45.13
2022-08-17T20:53:15.162Z,45.10
2022-08-17T20:55:51.609Z,45.47
2022-08-17T20:58:31.187Z,45.23
2022-08-17T21:00:58.817Z,45.40
2022-08-17T21:03:49.092Z,45.48
2022-08-17T21:06:19.022Z,45.58
2022-08-17T21:08:58.871Z,45.57
2022-08-17T21:11:56.715Z,45.93
2022-08-17T21:14:34.308Z,46.06
2022-08-17T21:17:17.625Z,45.56
2022-08-17T21:20:14.751Z,45.48
2022-08-17T21:22:51.269Z,45.59
2022-08-17T21:25:21.558Z,45.61
2022-08-17T21:28:07.074Z,48.23
2022-08-17T21:30:34.188Z,48.56
2022-08-17T21:33:20.491Z,48.35
2022-08-17T21:35:58.702Z,49.55
2022-08-17T21:38:37.643Z,48.88
2022-08-17T21:41:04.815Z,49.34
2022-08-17T21:43:35.256Z,49.38
2022-08-17T21:46:08.891Z,48.68
2022-08-17T21:48:45.722Z,48.57
2022-08-17T21:51:25.376Z,49.57
2022-08-17T21:53:58.850Z,49.82
2022-08-17T21:56:32.932Z,49.35
2022-08-17T21:59:03.684Z,49.56
2022-08-17T22:01:35.928Z,50.52
2022-08-17T22:04:20.795Z,50.34
2022-08-17T22:06:54.287Z,49.76
2022-08-17T22:09:31.962Z,49.63
2022-08-17T22:12:05.242Z,49.02
2022-08-17T22:14:52.247Z,48.58
2022-08-17T22:17:20.922Z,48.39
2022-08-17T22:19:59.239Z,48.22
2022-08-17T22:22:35.236Z,48.47
2022-08-17T22:25:06.885Z,48.66
2022-08-17T22:27:56.371Z,48.22
2022-08-17T22:30:33.560Z,48.56
2022-08-17T22:33:20.614Z,48.29
2022-08-17T22:35:48.116Z,48.16
2022-08-17T22:38:21.434Z,48.30
2022-08-17T22:40:51.318Z,48.46
2022-08-17T22:43:24.188Z,49.08
2022-08-17T22:45:56.178Z,49.35
2022-08-17T22:48:27.437Z,49.17
2022-08-17T22:51:14.047Z,49.68
2022-08-17T22:54:08.570Z,50.02
2022-08-17T22:56:54.392Z,49.49
2022-08-17T22:59:43.697Z,49.52
2022-08-17T23:02:16.023Z,49.62
2022-08-17T23:04:51.322Z,49.65
2022-08-17T23:07:19.153Z,49.66
2022-08-17T23:09:47.836Z,49.51
2022-08-17T23:12:18.801Z,49.24
2022-08-17T23:14:47.036Z,49.54
2022-08-17T23:17:14.376Z,49.56
2022-08-17T23:19:41.645Z,50.18
2022-08-17T23:22:10.021Z,50.41
2022-08-17T23:24:46.358Z,50.11
2022-08-17T23:27:13.651Z,50.57
2022-08-17T23:29:42.111Z,50.75
2022-08-17T23:32:14.606Z,51.32
2022-08-17T23:34:43.515Z,51.27
2022-08-17T23:37:11.157Z,51.93
2022-08-17T23:39:39.369Z,51.85
2022-08-17T23:42:08.962Z,52.35
2022-08-17T23:44:37.905Z,52.47
2022-08-17T23:47:07.234Z,52.21
2022-08-17T23:49:36.163Z,52.57
2022-08-17T23:52:07.430Z,53.17
2022-08-17T23:54:46.411Z,52.85
2022-08-17T23:57:18.069Z,52.84
2022-08-17T23:59:45.596Z,52.44
